Time;durP1;ratioP1;P1;durP2;ratioP2;P2;SDS_P1;SDS_P2;PMS_P1;PMS_P2;Temp;Humidity;BMP_temperature;BMP_pressure;BME280_temperature;BME280_humidity;BME280_pressure;Samples;Min_cycle;Max_cycle;Signal;HPM_P1;HPM_P2
2023/04/11 00:00:57;;;;;;;2.03;1.93;;;23.00;51.30;;;;;;5032247;28;20993;-74
2023/04/11 00:03:26;;;;;;;1.90;1.80;;;23.00;51.30;;;;;;5013118;28;20454;-76
2023/04/11 00:05:55;;;;;;;1.83;1.73;;;23.00;51.30;;;;;;5022658;28;20512;-75
2023/04/11 00:08:24;;;;;;;2.13;2.03;;;23.00;51.30;;;;;;5031572;28;20535;-75
2023/04/11 00:10:52;;;;;;;2.30;2.10;;;23.00;51.30;;;;;;5031178;28;20439;-75
2023/04/11 00:13:22;;;;;;;1.90;1.80;;;23.00;51.30;;;;;;5030898;28;20444;-75
2023/04/11 00:15:54;;;;;;;2.03;1.93;;;23.00;51.40;;;;;;5031653;28;20541;-75
2023/04/11 00:18:24;;;;;;;1.80;1.70;;;23.00;51.40;;;;;;5031333;28;20986;-78
2023/04/11 00:20:52;;;;;;;1.93;1.83;;;23.00;51.40;;;;;;5030770;28;20452;-76
2023/04/11 00:23:20;;;;;;;1.90;1.80;;;23.00;51.40;;;;;;5031418;28;20452;-78
2023/04/11 00:25:49;;;;;;;1.90;1.80;;;23.00;51.40;;;;;;5031194;28;20571;-74
2023/04/11 00:28:20;;;;;;;1.80;1.70;;;23.00;51.40;;;;;;5030459;28;20876;-75
2023/04/11 00:30:48;;;;;;;1.53;1.43;;;23.00;51.40;;;;;;5019125;28;20985;-75
2023/04/11 00:33:16;;;;;;;2.17;2.07;;;23.00;51.40;;;;;;5029587;28;20506;-75
2023/04/11 00:35:44;;;;;;;2.10;2.00;;;23.00;51.40;;;;;;5030710;28;20466;-75
2023/04/11 00:38:13;;;;;;;1.80;1.70;;;23.00;51.40;;;;;;5031021;28;20864;-74
2023/04/11 00:40:41;;;;;;;2.03;1.93;;;23.00;51.40;;;;;;5030598;28;20448;-75
2023/04/11 00:43:11;;;;;;;2.47;2.30;;;22.90;51.40;;;;;;5031112;28;20808;-76
2023/04/11 00:45:39;;;;;;;1.80;1.70;;;22.90;51.40;;;;;;5030972;28;20479;-74
2023/04/11 00:48:08;;;;;;;1.90;1.70;;;22.90;51.40;;;;;;5030663;28;20449;-74
2023/04/11 00:50:41;;;;;;;2.00;1.90;;;22.90;51.50;;;;;;5030278;28;20459;-74
2023/04/11 00:53:11;;;;;;;2.00;1.90;;;22.90;51.50;;;;;;5030706;28;20537;-74
2023/04/11 00:55:40;;;;;;;1.70;1.60;;;22.90;51.50;;;;;;5030762;28;20547;-74
2023/04/11 00:58:08;;;;;;;1.70;1.60;;;22.90;51.50;;;;;;5028707;28;20451;-78
2023/04/11 01:00:38;;;;;;;1.80;1.70;;;22.90;51.50;;;;;;5032511;28;20490;-77
2023/04/11 01:03:07;;;;;;;1.73;1.63;;;22.90;51.50;;;;;;5023750;28;20456;-78
2023/04/11 01:05:36;;;;;;;1.80;1.70;;;22.90;51.50;;;;;;5035306;28;20483;-74
2023/04/11 01:08:05;;;;;;;2.20;2.10;;;22.90;51.50;;;;;;5034829;28;20848;-75
2023/04/11 01:10:33;;;;;;;1.90;1.80;;;22.90;51.50;;;;;;5034638;28;20450;-75
2023/04/11 01:13:02;;;;;;;1.83;1.73;;;22.90;51.50;;;;;;5035130;28;20450;-75
2023/04/11 01:15:30;;;;;;;2.20;2.10;;;22.90;51.50;;;;;;5033616;28;21142;-75
2023/04/11 01:18:00;;;;;;;2.03;1.93;;;22.90;51.50;;;;;;5017095;28;20778;-75
2023/04/11 01:20:30;;;;;;;2.40;2.10;;;22.90;51.50;;;;;;5034118;28;20459;-75
2023/04/11 01:23:00;;;;;;;1.63;1.53;;;22.90;51.50;;;;;;5021740;28;20841;-74
2023/04/11 01:25:30;;;;;;;1.87;1.77;;;22.90;51.50;;;;;;5034338;28;20472;-74
2023/04/11 01:27:58;;;;;;;2.10;2.00;;;22.90;51.50;;;;;;5017123;28;20986;-75
2023/04/11 01:30:26;;;;;;;1.60;1.50;;;22.90;51.50;;;;;;5015886;28;20498;-74
2023/04/11 01:32:55;;;;;;;2.37;1.90;;;22.80;51.50;;;;;;5016804;28;20447;-78
2023/04/11 01:35:23;;;;;;;2.10;2.00;;;22.80;51.50;;;;;;5013055;28;20548;-75
2023/04/11 01:37:52;;;;;;;1.70;1.60;;;22.80;51.50;;;;;;5020289;28;20455;-75
2023/04/11 01:40:22;;;;;;;2.00;1.90;;;22.80;51.60;;;;;;5027788;28;20498;-76
2023/04/11 01:42:53;;;;;;;1.83;1.73;;;22.80;51.60;;;;;;5025647;28;20469;-75
2023/04/11 01:45:22;;;;;;;1.80;1.70;;;22.80;51.60;;;;;;5042749;28;20489;-75
2023/04/11 01:47:53;;;;;;;2.10;2.00;;;22.80;51.60;;;;;;5026034;28;20524;-74
2023/04/11 01:50:21;;;;;;;1.77;1.67;;;22.80;51.60;;;;;;5015317;28;20487;-76
2023/04/11 01:52:50;;;;;;;1.90;1.80;;;22.80;51.60;;;;;;5030028;28;20495;-75
2023/04/11 01:55:18;;;;;;;1.63;1.53;;;22.80;51.60;;;;;;5016444;28;20489;-74
2023/04/11 01:57:46;;;;;;;1.93;1.80;;;22.80;51.60;;;;;;5033787;28;20516;-74
2023/04/11 02:00:17;;;;;;;1.93;1.83;;;22.80;51.60;;;;;;5014991;28;20455;-80
2023/04/11 02:02:45;;;;;;;1.90;1.70;;;22.80;51.60;;;;;;5012636;28;20468;-75
2023/04/11 02:05:14;;;;;;;2.00;1.90;;;22.80;51.60;;;;;;5008015;28;20503;-78
2023/04/11 02:07:43;;;;;;;1.73;1.63;;;22.80;51.60;;;;;;5027217;28;20474;-77
2023/04/11 02:10:17;;;;;;;2.30;2.20;;;22.80;51.60;;;;;;5003693;28;20520;-75
2023/04/11 02:12:45;;;;;;;1.70;1.60;;;22.80;51.60;;;;;;5032348;28;20539;-74
2023/04/11 02:15:13;;;;;;;2.47;2.10;;;22.80;51.60;;;;;;5032300;28;20961;-76
2023/04/11 02:17:44;;;;;;;1.53;1.43;;;22.70;51.60;;;;;;5015923;28;20970;-75
2023/04/11 02:20:13;;;;;;;1.87;1.77;;;22.80;51.60;;;;;;5013952;28;20467;-76
2023/04/11 02:22:41;;;;;;;1.60;1.50;;;22.80;51.60;;;;;;5033789;28;20452;-75
2023/04/11 02:25:10;;;;;;;1.67;1.57;;;22.70;51.60;;;;;;5030056;28;20451;-75
2023/04/11 02:27:38;;;;;;;1.87;1.77;;;22.70;51.60;;;;;;5022764;28;20460;-78
2023/04/11 02:30:07;;;;;;;1.77;1.67;;;22.70;51.60;;;;;;5032591;28;20473;-75
2023/04/11 02:32:38;;;;;;;1.90;1.80;;;22.70;51.60;;;;;;5025080;28;20457;-74
2023/04/11 02:35:09;;;;;;;1.67;1.57;;;22.70;51.70;;;;;;5029674;28;20951;-75
2023/04/11 02:37:38;;;;;;;1.63;1.53;;;22.70;51.70;;;;;;5018264;28;20455;-81
2023/04/11 02:40:08;;;;;;;1.60;1.50;;;22.70;51.70;;;;;;5032914;28;20490;-74
2023/04/11 02:42:41;;;;;;;2.10;1.90;;;22.70;51.70;;;;;;5015218;28;20460;-74
2023/04/11 02:45:11;;;;;;;1.90;1.50;;;22.70;51.70;;;;;;5014774;28;20467;-81
2023/04/11 02:47:40;;;;;;;1.60;1.50;;;22.70;51.70;;;;;;5015770;28;20495;-74
2023/04/11 02:50:11;;;;;;;1.60;1.50;;;22.70;51.70;;;;;;5013997;28;20467;-74
2023/04/11 02:52:45;;;;;;;2.40;2.20;;;22.70;51.70;;;;;;5014476;28;20523;-75
2023/04/11 02:55:16;;;;;;;1.47;1.40;;;22.70;51.70;;;;;;5014943;28;20495;-74
2023/04/11 02:57:44;;;;;;;1.80;1.70;;;22.70;51.70;;;;;;5015164;28;20495;-76
2023/04/11 03:00:16;;;;;;;1.70;1.60;;;22.70;51.70;;;;;;5014284;28;20447;-74
2023/04/11 03:02:49;;;;;;;1.97;1.87;;;22.70;51.70;;;;;;5011901;28;20864;-75
2023/04/11 03:05:23;;;;;;;2.03;1.93;;;22.70;51.70;;;;;;5015003;28;20468;-77
2023/04/11 03:07:53;;;;;;;1.90;1.77;;;22.70;51.70;;;;;;5015339;28;20544;-79
2023/04/11 03:10:23;;;;;;;1.80;1.70;;;22.60;51.70;;;;;;5015004;28;20503;-75
2023/04/11 03:12:51;;;;;;;1.97;1.87;;;22.60;51.70;;;;;;5014887;28;20518;-75
2023/04/11 03:15:19;;;;;;;1.80;1.70;;;22.60;51.70;;;;;;5014468;28;20896;-75
2023/04/11 03:17:48;;;;;;;1.90;1.80;;;22.60;51.70;;;;;;5014902;28;20458;-75
2023/04/11 03:20:18;;;;;;;1.73;1.63;;;22.60;51.70;;;;;;5010888;28;20538;-75
2023/04/11 03:22:50;;;;;;;2.10;2.00;;;22.60;51.70;;;;;;5013335;28;20464;-76
2023/04/11 03:25:21;;;;;;;2.00;1.90;;;22.60;51.70;;;;;;5014400;28;20509;-75
2023/04/11 03:27:51;;;;;;;1.80;1.70;;;22.60;51.80;;;;;;5006861;28;20529;-76
2023/04/11 03:30:19;;;;;;;1.73;1.63;;;22.60;51.70;;;;;;5008266;28;20796;-75
2023/04/11 03:32:48;;;;;;;1.57;1.47;;;22.60;51.80;;;;;;5008755;28;20471;-75
2023/04/11 03:35:19;;;;;;;1.83;1.73;;;22.60;51.80;;;;;;5023806;28;20926;-74
2023/04/11 03:37:51;;;;;;;1.83;1.73;;;22.60;51.80;;;;;;5014975;28;20463;-75
2023/04/11 03:40:19;;;;;;;1.77;1.67;;;22.60;51.80;;;;;;5032331;28;20884;-74
2023/04/11 03:42:53;;;;;;;1.87;1.77;;;22.60;51.80;;;;;;5012850;28;20482;-78
2023/04/11 03:45:26;;;;;;;2.10;1.90;;;22.60;51.80;;;;;;4999789;28;20469;-75
2023/04/11 03:47:58;;;;;;;1.73;1.63;;;22.60;51.90;;;;;;5014029;28;20483;-76
2023/04/11 03:50:35;;;;;;;1.73;1.63;;;22.60;51.90;;;;;;5012929;28;20479;-75
2023/04/11 03:53:05;;;;;;;1.80;1.70;;;22.60;51.90;;;;;;5012004;28;20853;-75
2023/04/11 03:55:33;;;;;;;1.83;1.73;;;22.60;51.90;;;;;;5013922;28;20542;-74
2023/04/11 03:58:03;;;;;;;1.53;1.43;;;22.60;51.80;;;;;;5014316;28;20571;-74
2023/04/11 04:00:32;;;;;;;2.20;2.10;;;22.60;51.80;;;;;;5013754;28;20995;-77
2023/04/11 04:03:06;;;;;;;1.97;1.87;;;22.70;51.80;;;;;;5013834;28;20471;-77
2023/04/11 04:05:37;;;;;;;1.83;1.73;;;22.70;51.80;;;;;;5013807;28;20467;-74
2023/04/11 04:08:08;;;;;;;1.90;1.80;;;22.70;51.80;;;;;;5032006;28;20490;-74
2023/04/11 04:10:43;;;;;;;3.00;1.80;;;22.70;51.80;;;;;;5013377;28;20844;-76
2023/04/11 04:13:11;;;;;;;1.63;1.53;;;22.80;51.80;;;;;;5013526;28;20452;-76
2023/04/11 04:15:44;;;;;;;2.90;2.20;;;22.80;51.80;;;;;;5013863;28;20459;-77
2023/04/11 04:18:14;;;;;;;1.50;1.40;;;22.80;51.80;;;;;;5009024;28;20473;-77
2023/04/11 04:20:51;;;;;;;1.97;1.87;;;22.90;51.70;;;;;;5028736;28;20510;-75
2023/04/11 04:23:22;;;;;;;1.70;1.60;;;22.90;51.70;;;;;;5031687;28;20497;-75
2023/04/11 04:26:12;;;;;;;1.70;1.60;;;22.90;51.60;;;;;;5013434;28;20459;-74
2023/04/11 04:28:45;;;;;;;1.80;1.70;;;22.90;51.50;;;;;;5002866;28;20477;-75
2023/04/11 04:31:21;;;;;;;1.90;1.80;;;23.00;51.50;;;;;;5008187;28;20529;-74
2023/04/11 04:33:50;;;;;;;1.80;1.70;;;23.00;51.40;;;;;;4993314;28;20467;-75
2023/04/11 04:36:23;;;;;;;1.60;1.50;;;23.00;51.40;;;;;;5022959;28;20459;-74
2023/04/11 04:38:56;;;;;;;2.20;2.00;;;23.00;51.40;;;;;;5012294;28;20463;-77
2023/04/11 04:41:24;;;;;;;1.87;1.77;;;23.00;51.30;;;;;;5000937;28;20452;-75
2023/04/11 04:43:59;;;;;;;1.70;1.60;;;23.00;51.40;;;;;;5019804;28;20468;-74
2023/04/11 04:46:36;;;;;;;1.77;1.67;;;23.00;51.40;;;;;;5019125;28;20476;-74
2023/04/11 04:49:07;;;;;;;1.77;1.67;;;23.00;51.40;;;;;;5011964;28;20472;-74
2023/04/11 04:51:37;;;;;;;1.53;1.43;;;22.90;51.40;;;;;;5012958;28;20565;-76
2023/04/11 04:54:07;;;;;;;1.70;1.60;;;22.90;51.40;;;;;;5013310;28;20454;-75
2023/04/11 04:56:36;;;;;;;1.67;1.57;;;22.90;51.40;;;;;;5012956;28;20856;-75
2023/04/11 04:59:04;;;;;;;2.00;1.87;;;22.90;51.40;;;;;;5012489;28;20559;-75
2023/04/11 05:01:34;;;;;;;1.63;1.53;;;22.90;51.40;;;;;;5008169;28;20480;-74
2023/04/11 05:04:04;;;;;;;1.93;1.80;;;22.90;51.40;;;;;;5012839;28;20475;-75
2023/04/11 05:06:44;;;;;;;1.87;1.77;;;22.90;51.40;;;;;;5004993;28;20508;-75
2023/04/11 05:09:15;;;;;;;1.90;1.80;;;22.90;51.50;;;;;;5012704;28;20510;-77
2023/04/11 05:11:43;;;;;;;1.83;1.73;;;22.80;51.50;;;;;;5011167;28;20487;-77
2023/04/11 05:14:11;;;;;;;1.80;1.70;;;22.80;51.50;;;;;;5010594;28;20503;-75
2023/04/11 05:16:41;;;;;;;1.77;1.67;;;22.80;51.50;;;;;;5007762;28;20994;-74
2023/04/11 05:19:10;;;;;;;1.67;1.57;;;22.80;51.50;;;;;;5003330;28;20452;-75
2023/04/11 05:21:44;;;;;;;1.93;1.83;;;22.80;51.50;;;;;;5012924;28;20470;-75
2023/04/11 05:24:13;;;;;;;1.77;1.67;;;22.80;51.50;;;;;;5013374;28;20961;-75
2023/04/11 05:26:42;;;;;;;1.57;1.47;;;22.80;51.60;;;;;;5012897;28;20473;-75
2023/04/11 05:29:11;;;;;;;1.67;1.57;;;22.80;51.60;;;;;;5012618;28;20510;-76
2023/04/11 05:31:39;;;;;;;1.67;1.43;;;22.70;51.60;;;;;;5013625;28;20494;-75
2023/04/11 05:34:08;;;;;;;1.77;1.67;;;22.70;51.60;;;;;;5012583;28;20460;-75
2023/04/11 05:36:36;;;;;;;1.73;1.63;;;22.70;51.60;;;;;;5009531;28;20467;-75
2023/04/11 05:39:04;;;;;;;1.90;1.47;;;22.70;51.60;;;;;;5004949;28;20467;-75
2023/04/11 05:41:34;;;;;;;1.60;1.50;;;22.70;51.70;;;;;;5012774;28;20458;-77
2023/04/11 05:44:04;;;;;;;1.33;1.30;;;22.70;51.70;;;;;;5029613;28;20775;-74
2023/04/11 05:46:35;;;;;;;2.00;1.90;;;22.70;51.70;;;;;;5013791;28;20463;-74
2023/04/11 05:49:03;;;;;;;1.43;1.33;;;22.80;51.70;;;;;;5032960;28;20834;-75
2023/04/11 05:51:31;;;;;;;2.13;2.00;;;22.70;51.70;;;;;;5016585;28;20454;-75
2023/04/11 05:54:00;;;;;;;1.37;1.27;;;22.80;51.70;;;;;;5014747;28;20467;-75
2023/04/11 05:56:28;;;;;;;1.50;1.40;;;22.80;51.80;;;;;;5028161;28;20499;-74
2023/04/11 05:58:57;;;;;;;1.77;1.53;;;22.80;51.70;;;;;;5032956;28;20460;-75
2023/04/11 06:01:26;;;;;;;1.70;1.60;;;22.80;51.70;;;;;;5033837;28;20517;-74
2023/04/11 06:03:54;;;;;;;1.40;1.30;;;22.80;51.70;;;;;;5033271;28;20487;-77
2023/04/11 06:06:23;;;;;;;1.37;1.33;;;22.80;51.70;;;;;;5034318;28;20455;-75
2023/04/11 06:08:52;;;;;;;1.63;1.53;;;22.80;51.70;;;;;;5032509;28;20599;-75
2023/04/11 06:11:21;;;;;;;1.40;1.30;;;22.80;51.60;;;;;;5032266;28;20452;-74
2023/04/11 06:13:49;;;;;;;1.90;1.80;;;22.80;51.60;;;;;;5032965;28;20502;-74
2023/04/11 06:16:19;;;;;;;1.67;1.57;;;22.80;51.60;;;;;;5033822;28;20534;-75
2023/04/11 06:18:47;;;;;;;1.33;1.30;;;22.80;51.60;;;;;;5015778;28;20491;-74
2023/04/11 06:21:15;;;;;;;1.40;1.30;;;22.80;51.60;;;;;;5033401;28;20450;-75
2023/04/11 06:23:43;;;;;;;1.47;1.37;;;22.80;51.60;;;;;;5033170;28;20481;-79
2023/04/11 06:26:11;;;;;;;1.60;1.50;;;22.80;51.60;;;;;;5033224;28;20444;-75
2023/04/11 06:28:40;;;;;;;1.60;1.50;;;22.80;51.60;;;;;;5029521;28;20474;-75
2023/04/11 06:31:09;;;;;;;1.20;1.20;;;22.80;51.60;;;;;;5000370;28;20449;-75
2023/04/11 06:33:39;;;;;;;1.43;1.33;;;22.80;51.60;;;;;;5030924;28;20481;-74
2023/04/11 06:36:08;;;;;;;1.47;1.37;;;22.80;51.60;;;;;;5032991;28;21016;-75
2023/04/11 06:38:37;;;;;;;1.50;1.40;;;22.80;51.60;;;;;;5023218;28;20466;-76
2023/04/11 06:41:05;;;;;;;1.50;1.40;;;22.80;51.60;;;;;;5027082;28;20550;-75
2023/04/11 06:43:33;;;;;;;1.53;1.43;;;22.80;51.60;;;;;;5026345;28;20467;-78
2023/04/11 06:46:02;;;;;;;1.40;1.30;;;22.80;51.60;;;;;;5033223;28;20452;-81
2023/04/11 06:48:30;;;;;;;1.43;1.17;;;22.80;51.60;;;;;;5032673;28;20580;-75
2023/04/11 06:50:59;;;;;;;1.50;1.40;;;22.70;51.70;;;;;;5021957;28;20551;-74
2023/04/11 06:53:29;;;;;;;1.60;1.50;;;22.70;51.70;;;;;;5029161;28;20514;-74
2023/04/11 06:55:59;;;;;;;1.40;1.30;;;22.70;51.70;;;;;;5032239;28;20505;-74
2023/04/11 06:58:27;;;;;;;1.37;1.27;;;22.70;51.70;;;;;;5030804;28;20554;-76
2023/04/11 07:00:55;;;;;;;1.23;1.23;;;22.70;51.70;;;;;;5030613;28;20648;-77
2023/04/11 07:03:25;;;;;;;1.33;1.27;;;22.70;51.70;;;;;;5032129;28;20452;-75
2023/04/11 07:05:53;;;;;;;1.30;1.20;;;22.70;51.70;;;;;;5019430;28;20487;-74
2023/04/11 07:08:22;;;;;;;1.70;1.60;;;22.70;51.70;;;;;;5020665;28;20579;-74
2023/04/11 07:10:51;;;;;;;1.17;1.17;;;22.70;51.80;;;;;;5025878;28;20509;-74
2023/04/11 07:13:20;;;;;;;1.87;1.77;;;22.70;51.80;;;;;;5017822;28;20441;-74
2023/04/11 07:15:48;;;;;;;1.53;1.43;;;22.70;51.80;;;;;;5031584;28;20538;-74
2023/04/11 07:18:16;;;;;;;2.00;1.90;;;22.70;51.80;;;;;;5028189;28;20539;-74
2023/04/11 07:20:45;;;;;;;1.50;1.40;;;22.70;51.80;;;;;;5031387;28;20459;-74
2023/04/11 07:23:13;;;;;;;1.60;1.17;;;22.70;51.80;;;;;;5030713;28;20454;-75
2023/04/11 07:25:43;;;;;;;1.57;1.47;;;22.70;51.80;;;;;;5031492;28;20542;-76
2023/04/11 07:28:11;;;;;;;1.10;1.10;;;22.70;51.80;;;;;;5031641;28;20480;-76
2023/04/11 07:30:40;;;;;;;1.30;1.20;;;22.70;51.80;;;;;;5029277;28;20464;-74
2023/04/11 07:33:09;;;;;;;1.47;1.37;;;22.70;51.70;;;;;;5031614;28;20490;-74
2023/04/11 07:35:37;;;;;;;1.80;1.60;;;22.80;51.70;;;;;;5031645;28;20543;-79
2023/04/11 07:38:08;;;;;;;2.40;1.03;;;22.80;51.70;;;;;;5032237;28;20517;-74
2023/04/11 07:40:36;;;;;;;1.23;0.93;;;22.80;51.70;;;;;;5031553;28;20440;-74
2023/04/11 07:43:05;;;;;;;1.20;1.10;;;22.80;51.70;;;;;;5030973;28;20477;-77
2023/04/11 07:45:35;;;;;;;1.27;1.23;;;22.80;51.60;;;;;;5030835;28;20448;-74
2023/04/11 07:48:03;;;;;;;1.13;1.10;;;22.80;51.60;;;;;;5022703;28;20451;-74
2023/04/11 07:50:31;;;;;;;1.17;1.00;;;22.80;51.70;;;;;;5031878;28;20451;-74
2023/04/11 07:53:00;;;;;;;1.23;1.17;;;22.80;51.60;;;;;;5011554;28;20497;-74
2023/04/11 07:55:30;;;;;;;1.40;1.30;;;22.80;51.60;;;;;;5032847;28;21028;-74
2023/04/11 07:57:58;;;;;;;1.13;1.13;;;22.80;51.60;;;;;;5032174;28;20813;-74
2023/04/11 08:00:29;;;;;;;1.33;1.23;;;22.80;51.50;;;;;;5030424;28;20459;-74
2023/04/11 08:03:01;;;;;;;1.27;1.17;;;22.80;51.50;;;;;;5031524;28;20486;-75
2023/04/11 08:05:30;;;;;;;1.00;1.00;;;22.80;51.60;;;;;;5031575;28;20448;-74
2023/04/11 08:07:58;;;;;;;1.00;1.00;;;22.80;51.50;;;;;;5031334;28;20538;-74
2023/04/11 08:10:26;;;;;;;0.93;0.93;;;22.80;51.50;;;;;;5031216;28;20455;-76
2023/04/11 08:12:55;;;;;;;1.17;1.17;;;22.80;51.60;;;;;;5026175;28;21022;-75
2023/04/11 08:15:23;;;;;;;1.37;1.27;;;22.80;51.60;;;;;;5029629;28;20459;-75
2023/04/11 08:17:55;;;;;;;0.93;0.90;;;22.80;51.60;;;;;;5030651;28;20456;-75
2023/04/11 08:20:24;;;;;;;0.90;0.90;;;22.80;51.60;;;;;;5014110;28;20821;-74
2023/04/11 08:22:52;;;;;;;1.30;1.20;;;22.80;51.60;;;;;;5013774;28;20521;-75
2023/04/11 08:25:22;;;;;;;1.00;1.00;;;22.80;51.60;;;;;;5031487;28;20451;-74
2023/04/11 08:27:51;;;;;;;1.00;1.00;;;22.80;51.50;;;;;;5031234;28;20478;-74
2023/04/11 08:30:20;;;;;;;1.00;0.90;;;22.80;51.50;;;;;;5029347;28;20503;-74
2023/04/11 08:32:48;;;;;;;1.20;1.07;;;22.80;51.50;;;;;;5031349;28;21051;-75
2023/04/11 08:35:18;;;;;;;0.90;0.90;;;22.80;51.50;;;;;;5030693;28;20541;-74
2023/04/11 08:37:47;;;;;;;1.13;0.93;;;22.80;51.50;;;;;;5031114;28;20546;-74
2023/04/11 08:40:16;;;;;;;1.20;1.20;;;22.80;51.50;;;;;;5031016;28;20483;-74
2023/04/11 08:42:45;;;;;;;1.63;1.20;;;22.80;51.50;;;;;;5030839;28;20471;-77
2023/04/11 08:45:14;;;;;;;0.93;0.93;;;22.80;51.50;;;;;;5011411;28;20522;-75
2023/04/11 08:47:43;;;;;;;1.00;1.00;;;22.80;51.60;;;;;;5031242;28;20535;-75
2023/04/11 08:50:13;;;;;;;1.03;1.03;;;22.90;51.60;;;;;;5030614;28;20485;-75
2023/04/11 08:52:46;;;;;;;1.40;1.30;;;22.90;51.60;;;;;;5019094;28;21012;-74
2023/04/11 08:55:14;;;;;;;1.17;1.07;;;22.90;51.60;;;;;;5013537;28;20485;-76
2023/04/11 08:57:44;;;;;;;1.33;1.23;;;22.90;51.50;;;;;;5031131;28;20650;-74
2023/04/11 09:00:13;;;;;;;0.90;0.90;;;22.90;51.60;;;;;;5029725;28;20891;-76
2023/04/11 09:02:58;;;;;;;1.03;1.03;;;22.90;51.50;;;;;;5031333;28;20491;-75
2023/04/11 09:05:28;;;;;;;1.37;0.90;;;23.00;51.40;;;;;;5023191;28;20450;-76
2023/04/11 09:07:59;;;;;;;1.33;1.13;;;23.00;51.40;;;;;;5030775;28;20440;-74
2023/04/11 09:10:27;;;;;;;0.83;0.83;;;23.00;51.40;;;;;;5030722;28;20469;-76
2023/04/11 09:12:56;;;;;;;0.90;0.90;;;23.00;51.40;;;;;;5030356;28;20476;-75
2023/04/11 09:15:26;;;;;;;0.97;0.90;;;23.00;51.40;;;;;;5027624;28;20498;-77
2023/04/11 09:17:56;;;;;;;1.13;0.97;;;23.00;51.40;;;;;;5030708;28;20451;-77
2023/04/11 09:20:29;;;;;;;0.80;0.80;;;22.90;51.40;;;;;;5030417;28;21314;-75
2023/04/11 09:22:59;;;;;;;0.87;0.87;;;22.90;51.40;;;;;;5024813;28;20451;-78
2023/04/11 09:25:28;;;;;;;0.90;0.90;;;22.90;51.50;;;;;;5031641;28;20534;-75
2023/04/11 09:28:07;;;;;;;0.97;0.97;;;22.90;51.40;;;;;;5032576;28;20936;-75
2023/04/11 09:30:36;;;;;;;1.13;0.70;;;22.90;51.50;;;;;;5034102;28;20475;-74
2023/04/11 09:33:20;;;;;;;0.80;0.80;;;22.90;51.50;;;;;;5034648;28;20451;-77
2023/04/11 09:35:49;;;;;;;1.17;1.07;;;22.90;51.50;;;;;;5034516;28;20549;-74
2023/04/11 09:38:33;;;;;;;0.77;0.77;;;22.90;51.50;;;;;;5020406;28;20443;-75
2023/04/11 09:41:02;;;;;;;0.80;0.80;;;22.90;51.50;;;;;;5032756;28;20451;-74
2023/04/11 09:43:49;;;;;;;0.90;0.90;;;22.90;51.50;;;;;;5032163;28;20456;-74
2023/04/11 09:46:19;;;;;;;0.83;0.83;;;22.80;51.50;;;;;;5029402;28;20936;-74
2023/04/11 09:48:48;;;;;;;0.70;0.70;;;22.90;51.50;;;;;;5032090;28;20478;-74
2023/04/11 09:51:17;;;;;;;1.07;0.90;;;22.90;51.50;;;;;;5033681;28;20479;-75
2023/04/11 09:54:04;;;;;;;0.70;0.70;;;22.90;51.50;;;;;;5031810;28;20459;-74
2023/04/11 09:56:36;;;;;;;0.83;0.70;;;22.90;51.50;;;;;;5022801;28;20847;-74
2023/04/11 09:59:04;;;;;;;0.80;0.80;;;22.90;51.50;;;;;;5032638;28;20530;-75
2023/04/11 10:01:33;;;;;;;1.00;0.90;;;22.90;51.50;;;;;;5034166;28;20460;-74
2023/04/11 10:04:03;;;;;;;0.97;0.87;;;22.90;51.50;;;;;;5025729;28;20453;-74
2023/04/11 10:06:34;;;;;;;1.00;1.00;;;22.90;51.50;;;;;;5032502;28;20450;-75
2023/04/11 10:09:08;;;;;;;1.00;1.00;;;22.90;51.50;;;;;;5006714;28;20522;-77
2023/04/11 10:11:37;;;;;;;1.07;0.90;;;22.90;51.40;;;;;;5028925;28;21246;-75
2023/04/11 10:14:05;;;;;;;1.50;1.00;;;23.00;51.40;;;;;;5021286;28;20499;-74
2023/04/11 10:16:33;;;;;;;1.00;1.00;;;23.00;51.40;;;;;;5032602;28;20443;-74
2023/04/11 10:19:24;;;;;;;1.30;0.90;;;23.10;51.40;;;;;;5033491;28;20945;-74
2023/04/11 10:21:54;;;;;;;1.03;0.80;;;23.10;51.30;;;;;;5033644;28;20467;-76
2023/04/11 10:24:27;;;;;;;1.13;0.90;;;23.10;51.30;;;;;;5013888;28;20452;-75
2023/04/11 10:26:56;;;;;;;0.73;0.73;;;23.10;51.20;;;;;;5033729;28;20450;-74
2023/04/11 10:29:51;;;;;;;2.30;1.00;;;23.20;51.20;;;;;;5032587;28;20448;-75
2023/04/11 10:32:23;;;;;;;0.77;0.77;;;23.20;51.10;;;;;;5032770;28;20449;-75
2023/04/11 10:35:21;;;;;;;1.73;0.90;;;23.20;51.00;;;;;;5032844;28;20485;-74
2023/04/11 10:37:49;;;;;;;0.73;0.73;;;23.20;51.00;;;;;;5032764;28;20436;-75
2023/04/11 10:40:20;;;;;;;0.80;0.70;;;23.20;51.10;;;;;;5032129;28;20448;-77
2023/04/11 10:42:48;;;;;;;0.70;0.70;;;23.20;51.00;;;;;;5007643;28;20456;-75
2023/04/11 10:45:20;;;;;;;0.80;0.80;;;23.30;50.90;;;;;;5013517;28;20875;-75
2023/04/11 10:48:10;;;;;;;1.20;1.10;;;23.30;50.90;;;;;;5015180;28;20948;-74
2023/04/11 10:50:43;;;;;;;1.00;0.80;;;23.30;50.90;;;;;;5020098;28;20475;-74
2023/04/11 10:53:37;;;;;;;1.00;0.90;;;23.30;50.90;;;;;;5032733;28;20538;-74
2023/04/11 10:56:07;;;;;;;0.83;0.83;;;23.30;50.90;;;;;;5032495;28;20932;-75
2023/04/11 10:58:38;;;;;;;0.60;0.60;;;23.30;50.90;;;;;;5031771;28;20535;-74
2023/04/11 11:01:17;;;;;;;0.53;0.53;;;23.20;50.90;;;;;;5033494;28;20452;-74
2023/04/11 11:03:59;;;;;;;0.60;0.60;;;23.20;51.00;;;;;;5028162;28;20456;-74
2023/04/11 11:06:28;;;;;;;0.70;0.70;;;23.10;51.00;;;;;;5032674;28;20490;-75
2023/04/11 11:08:57;;;;;;;0.60;0.60;;;23.10;51.10;;;;;;5018671;28;20535;-76
2023/04/11 11:11:27;;;;;;;0.77;0.77;;;23.10;51.10;;;;;;5032694;28;21170;-77
2023/04/11 11:13:55;;;;;;;0.80;0.70;;;23.10;51.30;;;;;;5026097;28;20455;-76
2023/04/11 11:16:25;;;;;;;0.73;0.73;;;23.10;51.20;;;;;;5032706;28;20452;-77
2023/04/11 11:18:57;;;;;;;0.77;0.77;;;23.10;51.20;;;;;;5032252;28;20459;-77
2023/04/11 11:21:26;;;;;;;1.60;1.00;;;23.10;51.20;;;;;;5031392;28;20952;-74
2023/04/11 11:23:57;;;;;;;0.60;0.60;;;23.10;51.20;;;;;;5012812;28;20445;-74
2023/04/11 11:26:37;;;;;;;0.67;0.67;;;23.10;51.20;;;;;;5030633;28;20466;-74
2023/04/11 11:29:06;;;;;;;0.60;0.60;;;23.10;51.20;;;;;;5031422;28;20440;-74
2023/04/11 11:31:38;;;;;;;0.70;0.60;;;23.10;51.10;;;;;;5032759;28;20567;-77
2023/04/11 11:34:06;;;;;;;0.87;0.80;;;23.10;51.10;;;;;;5025275;28;20455;-75
2023/04/11 11:36:51;;;;;;;0.60;0.60;;;23.10;51.20;;;;;;5032226;28;21000;-75
2023/04/11 11:39:22;;;;;;;0.53;0.53;;;23.10;51.30;;;;;;5032264;28;20448;-74
2023/04/11 11:41:52;;;;;;;0.60;0.60;;;23.10;51.20;;;;;;5030103;28;20568;-74
2023/04/11 11:44:24;;;;;;;0.63;0.50;;;23.10;51.20;;;;;;5027121;28;20444;-74
2023/04/11 11:47:02;;;;;;;0.70;0.70;;;23.10;51.30;;;;;;5032611;28;20450;-76
2023/04/11 11:49:47;;;;;;;0.80;0.77;;;23.20;51.10;;;;;;5031103;28;20539;-74
2023/04/11 11:52:32;;;;;;;1.20;1.10;;;23.20;51.20;;;;;;5031656;28;20564;-74
2023/04/11 11:55:02;;;;;;;0.90;0.80;;;23.30;51.00;;;;;;5014426;28;20936;-80
2023/04/11 11:57:31;;;;;;;0.70;0.70;;;23.40;50.90;;;;;;5028354;28;20942;-75
2023/04/11 12:00:02;;;;;;;1.17;0.70;;;23.50;50.80;;;;;;5030436;28;20932;-75
2023/04/11 12:02:34;;;;;;;0.70;0.67;;;23.50;50.80;;;;;;5031322;28;20530;-76
2023/04/11 12:05:05;;;;;;;1.43;0.90;;;23.50;50.90;;;;;;5013373;28;20804;-74
2023/04/11 12:07:36;;;;;;;0.70;0.70;;;23.60;50.70;;;;;;5023562;28;20478;-77
2023/04/11 12:10:07;;;;;;;0.73;0.70;;;23.60;50.80;;;;;;5031393;28;20448;-75
2023/04/11 12:12:39;;;;;;;0.70;0.70;;;23.70;50.70;;;;;;5031424;28;20566;-75
2023/04/11 12:15:11;;;;;;;1.07;0.97;;;23.70;50.60;;;;;;5027496;28;20460;-75
2023/04/11 12:17:40;;;;;;;1.53;1.10;;;23.80;50.50;;;;;;5031442;28;20590;-75
2023/04/11 12:20:10;;;;;;;0.90;0.90;;;23.70;50.40;;;;;;5031529;28;20447;-75
2023/04/11 12:22:38;;;;;;;1.00;0.90;;;23.80;50.50;;;;;;5030867;28;20465;-81
2023/04/11 12:25:08;;;;;;;0.87;0.73;;;23.80;50.50;;;;;;5031341;28;20459;-78
2023/04/11 12:27:39;;;;;;;0.83;0.70;;;23.80;50.40;;;;;;5029286;28;20464;-77
2023/04/11 12:30:08;;;;;;;0.70;0.70;;;23.90;50.20;;;;;;5030130;28;20523;-80
2023/04/11 12:32:37;;;;;;;1.13;0.70;;;23.90;50.30;;;;;;5012729;28;20556;-77
2023/04/11 12:35:06;;;;;;;0.67;0.67;;;23.90;50.30;;;;;;5029787;28;20491;-75
2023/04/11 12:37:35;;;;;;;0.70;0.70;;;24.00;50.20;;;;;;5031135;28;20478;-75
2023/04/11 12:40:09;;;;;;;0.80;0.80;;;24.00;50.10;;;;;;5030897;28;21010;-74
2023/04/11 12:42:39;;;;;;;0.70;0.70;;;24.00;50.10;;;;;;5030974;28;20503;-75
2023/04/11 12:45:12;;;;;;;0.67;0.67;;;24.00;50.10;;;;;;5029976;28;20452;-74
2023/04/11 12:47:40;;;;;;;1.83;0.80;;;24.00;50.30;;;;;;5031373;28;20484;-74
2023/04/11 12:50:10;;;;;;;1.10;1.00;;;23.90;50.20;;;;;;5030454;28;20444;-74
2023/04/11 12:52:38;;;;;;;1.57;0.73;;;23.90;50.20;;;;;;5030738;28;20495;-75
2023/04/11 12:55:08;;;;;;;0.80;0.80;;;24.00;50.30;;;;;;5030619;28;21007;-74
2023/04/11 12:57:36;;;;;;;1.53;0.70;;;24.00;50.20;;;;;;5029886;28;20936;-74
2023/04/11 13:00:09;;;;;;;1.00;0.67;;;24.00;50.30;;;;;;5030639;28;20616;-79
2023/04/11 13:02:37;;;;;;;0.60;0.60;;;24.00;50.20;;;;;;5027962;28;20516;-75
2023/04/11 13:05:13;;;;;;;0.73;0.73;;;23.90;50.10;;;;;;5029777;28;20556;-74